• Join FlightAware (Why Join?)
  • Login
  • US Flag 
06:18PM EDT


 

Airport Tracker/Info


-or-


 

Live Flight TrackerFlight Track Log ✈ DAL1981 ✈ 02-May-2013 ✈ KALB - KATL

Flight Track Log - Related Links

Times and Time Zones

All times are in EDT time to prevent confusion due to time zone crossing. See the DAL1981 flight status page for this flight to view local times or setup timezone preferences in your user account.

Time Position Orientation Groundspeed Altitude Reporting Facility
EDT Latitude Longitude Course Direction KTS MPH feet Rate Location/Type
06:18AM 42.7736 -73.8092 180° South 165 190 1,500  Level Boston Center
06:19AM 42.8336 -73.8358 342° North 243 280 3,200 2,280 Climbing Boston Center
06:20AM 42.8950 -73.9194 315° West 264 304 6,700 2,700 Climbing Boston Center
06:21AM 42.4141 -74.2692 198° South  Level Estimated
06:21AM 42.9464 -73.9889 315° West 273 314 9,300  Level Boston Center
06:22AM 42.3300 -74.3852 180° South  Level Estimated
06:22AM 42.9508 -74.1081 273° West 278 320 11,100  Level Boston Center
06:23AM 42.2459 -74.5010 180° South  Level Estimated
06:23AM 42.8808 -74.1883 220° Southwest 341 392 12,600  Level Boston Center
06:24AM 42.7636 -74.2189 191° South 381 438 15,100 2,220 Climbing Boston Center
06:25AM 42.6622 -74.1822 165° South 387 445 17,100 1,860 Climbing Boston Center
06:26AM 42.5378 -74.1392 166° South 416 479 18,900 1,740 Climbing Boston Center
06:27AM 42.4194 -74.0994 166° South 428 493 20,600 1,500 Climbing Boston Center
06:28AM 42.2950 -74.0567 166° South 442 509 22,000 1,500 Climbing Boston Center
06:29AM 42.1600 -74.0394 175° South 468 539 23,600 1,560 Climbing Boston Center
06:30AM 42.0264 -74.0472 182° South 475 547 25,200 1,800 Climbing Boston Center
06:31AM 41.8908 -74.0575 183° South 486 559 27,200 1,740 Climbing Boston Center
06:32AM 41.7761 -74.0575 180° South 486 559 28,700 1,260 Climbing Boston Center
06:34AM 41.4653 -74.0767 183° South 480 552 31,400 1,080 Climbing New York Center
06:35AM 41.3428 -74.1369 200° South 475 547 32,200 780 Climbing New York Center
06:36AM 41.2394 -74.2503 220° Southwest 463 533 33,000 900 Climbing New York Center
06:37AM 41.1439 -74.3778 225° Southwest 474 545 34,000 480 Climbing New York Center
06:38AM 41.0525 -74.5047 226° Southwest 479 551 34,000  Level New York Center
06:39AM 40.9592 -74.6233 224° Southwest 479 551 34,000  Level New York Center
06:40AM 40.8656 -74.7442 224° Southwest 474 545 34,000  Level New York Center
06:41AM 40.7742 -74.8594 224° Southwest 469 540 34,000  Level New York Center
06:42AM 40.6803 -74.9825 225° Southwest 475 547 34,000  Level New York Center
06:43AM 40.5883 -75.0997 224° Southwest 475 547 34,000  Level New York Center
06:44AM 40.4944 -75.2222 225° Southwest 475 547 34,000  Level New York Center
06:45AM 40.4003 -75.3386 223° Southwest 475 547 34,000  Level New York Center
06:46AM 40.3081 -75.4578 225° Southwest 475 547 34,000  Level New York Center
06:47AM 40.2244 -75.5692 226° Southwest 475 547 34,000  Level New York Center
06:48AM 40.1539 -75.7081 236° Southwest 475 547 34,000  Level New York Center
06:49AM 40.0814 -75.8469 236° Southwest 470 541 34,000  Level New York Center
06:50AM 40.0069 -75.9797 234° Southwest 470 541 34,000  Level New York Center
06:51AM 39.9261 -76.1089 231° Southwest 470 541 34,000  Level New York Center
06:52AM 39.8411 -76.2350 229° Southwest 465 535 34,000  Level New York Center
06:53AM 39.7403 -76.3875 229° Southwest 470 541 34,000  Level Washington Center
06:54AM 39.6642 -76.5161 232° Southwest 470 541 34,000  Level Washington Center
06:55AM 39.5736 -76.6414 227° Southwest 470 541 34,000  Level Washington Center
06:57AM 39.4911 -76.7639 229° Southwest 470 541 34,000  Level Washington Center
06:57AM 39.4108 -76.8889 230° Southwest 470 541 34,000  Level Washington Center
06:59AM 39.3303 -77.0108 230° Southwest 459 528 34,000  Level Washington Center
07:00AM 39.2494 -77.1353 230° Southwest 459 528 34,000  Level Washington Center
07:00AM 39.1686 -77.2594 230° Southwest 459 528 34,000  Level Washington Center
07:01AM 39.0878 -77.3781 229° Southwest 454 522 34,000  Level Washington Center
07:02AM 39.0089 -77.4989 230° Southwest 449 517 34,000  Level Washington Center
07:04AM 38.9275 -77.6197 229° Southwest 455 524 34,000  Level Washington Center
07:04AM 38.8378 -77.7531 229° Southwest 450 518 34,000  Level Washington Center
07:05AM 38.7542 -77.8756 229° Southwest 457 526 34,000  Level Washington Center
07:07AM 38.6725 -77.9956 229° Southwest 452 520 34,000  Level Washington Center
07:08AM 38.5931 -78.1150 230° Southwest 452 520 34,000  Level Washington Center
07:08AM 38.5111 -78.2317 228° Southwest 452 520 34,000  Level Washington Center
07:09AM 38.4292 -78.3533 229° Southwest 452 520 34,000  Level Washington Center
07:10AM 38.3450 -78.4747 229° Southwest 452 520 34,000  Level Washington Center
07:12AM 38.2822 -78.5675 229° Southwest 452 520 34,000  Level Washington Center
07:13AM 38.1956 -78.6961 229° Southwest 452 520 34,000  Level Washington Center
07:13AM 38.1047 -78.8217 227° Southwest 447 514 34,000  Level Washington Center
07:14AM 38.0244 -78.9369 229° Southwest 447 514 34,000  Level Washington Center
07:15AM 37.9397 -79.0542 228° Southwest 452 520 34,000  Level Washington Center
07:16AM 37.8614 -79.1717 230° Southwest 452 520 34,000  Level Washington Center
07:17AM 37.7831 -79.2756 226° Southwest 452 520 34,000  Level Washington Center
07:18AM 37.6914 -79.3997 227° Southwest 452 520 34,000  Level Washington Center
07:20AM 37.6172 -79.5036 228° Southwest 452 520 34,000  Level Washington Center
07:20AM 37.5256 -79.6272 227° Southwest 452 520 34,000  Level Washington Center
07:21AM 37.4444 -79.7381 227° Southwest 447 514 34,000  Level Washington Center
07:22AM 37.3678 -79.8436 228° Southwest 452 520 34,000  Level Washington Center
07:24AM 37.2233 -80.0381 227° Southwest 427 491 34,000  Level Atlanta Center
07:25AM 37.1414 -80.1464 227° Southwest 427 491 34,000  Level Atlanta Center
07:26AM 37.0614 -80.2569 228° Southwest 427 491 34,000  Level Atlanta Center
07:27AM 36.9814 -80.3647 227° Southwest 434 499 34,000  Level Atlanta Center
07:28AM 36.9092 -80.4617 227° Southwest 434 499 34,000  Level Atlanta Center
07:29AM 36.8267 -80.5717 227° Southwest 434 499 34,000  Level Atlanta Center
07:30AM 36.7403 -80.6867 227° Southwest 429 494 34,000  Level Atlanta Center
07:31AM 36.6578 -80.7989 228° Southwest 429 494 34,000  Level Atlanta Center
07:32AM 36.5750 -80.9056 226° Southwest 435 501 34,000  Level Atlanta Center
07:33AM 36.4922 -81.0147 227° Southwest 435 501 34,000  Level Atlanta Center
07:34AM 36.4075 -81.1264 227° Southwest 435 501 34,000  Level Atlanta Center
07:35AM 36.3244 -81.2350 227° Southwest 440 506 34,000  Level Atlanta Center
07:36AM 36.2414 -81.3458 227° Southwest 435 501 34,000  Level Atlanta Center
07:37AM 36.1686 -81.4436 227° Southwest 435 501 34,000  Level Atlanta Center
07:38AM 36.0831 -81.5492 225° Southwest 435 501 34,000  Level Atlanta Center
07:39AM 35.9978 -81.6594 226° Southwest 435 501 34,000  Level Atlanta Center
07:40AM 35.9164 -81.7722 228° Southwest 435 501 34,000  Level Atlanta Center
07:41AM 35.8328 -81.8744 225° Southwest 430 495 34,000  Level Atlanta Center
07:42AM 35.7511 -81.9789 226° Southwest 435 501 34,000  Level Atlanta Center
07:43AM 35.6672 -82.0858 226° Southwest 429 494 34,000  Level Atlanta Center
07:44AM 35.5792 -82.1850 223° Southwest 429 494 34,000 -480 Level Atlanta Center
07:45AM 35.4931 -82.2864 224° Southwest 429 494 33,100 -1,200 Descending Atlanta Center
07:46AM 35.4025 -82.3853 222° Southwest 435 501 31,600 -1,560 Descending Atlanta Center
07:47AM 35.3081 -82.4939 223° Southwest 435 501 30,000 -1,920 Descending Atlanta Center
07:48AM 35.2175 -82.5947 222° Southwest 440 506 27,800 -1,920 Descending Atlanta Center
07:49AM 35.1267 -82.6978 223° Southwest 440 506 26,200 -1,440 Descending Atlanta Center
07:50AM 35.0361 -82.7983 222° Southwest 440 506 25,000 -1,200 Descending Atlanta Center
07:51AM 34.9514 -82.8933 223° Southwest 435 501 23,900 -1,380 Descending Atlanta Center
07:52AM 34.8728 -82.9781 221° Southwest 429 494 22,300 -2,340 Descending Atlanta Center
07:53AM 34.7881 -83.0753 223° Southwest 424 488 19,300 -2,760 Descending Atlanta Center
07:54AM 34.7033 -83.1697 223° Southwest 424 488 16,800 -1,560 Descending Atlanta Center
07:55AM 34.6119 -83.2689 222° Southwest 412 474 16,200 -480 Descending Atlanta Center
07:56AM 34.5311 -83.3606 223° Southwest 407 468 15,900 -480 Descending Atlanta Center
07:57AM 34.4503 -83.4544 224° Southwest 407 468 15,300 -480 Descending Atlanta Center
07:58AM 34.3650 -83.5406 220° Southwest 407 468 15,000 -420 Descending Atlanta Center
07:59AM 34.2861 -83.6289 223° Southwest 407 468 14,500 -540 Descending Atlanta Center
08:00AM 34.2133 -83.7097 223° Southwest 402 463 14,000 -300 Descending Atlanta Center
08:01AM 34.1300 -83.7978 221° Southwest 402 463 14,000 -420 Level Atlanta Center
08:02AM 34.0333 -83.9000 221° Southwest 389 448 13,200 -960 Descending Atlanta TRACON
08:03AM 33.9667 -83.9667 220° Southwest 385 443 12,200 -660 Descending Atlanta TRACON
08:04AM 33.8833 -84.0500 220° Southwest 354 407 12,000 -120 Descending Atlanta TRACON
08:05AM 33.8167 -84.1167 220° Southwest 277 319 12,000  Level Atlanta TRACON
08:06AM 33.7667 -84.1500 209° Southwest 253 291 12,000  Level Atlanta TRACON
08:07AM 33.7333 -84.2167 239° Southwest 267 307 12,000 -300 Level Atlanta TRACON
08:08AM 33.7333 -84.3167 270° West 275 316 11,500 -900 Descending Atlanta TRACON
08:09AM 33.7333 -84.3833 270° West 268 308 10,400 -1,260 Descending Atlanta TRACON
08:10AM 33.7333 -84.4667 270° West 252 290 9,200 -1,500 Descending Atlanta TRACON
08:11AM 33.7333 -84.5500 270° West 240 276 7,500 -1,800 Descending Atlanta TRACON
08:12AM 33.7333 -84.6333 270° West 248 285 5,700 -1,260 Descending Atlanta TRACON
08:13AM 33.7333 -84.7000 270° West 223 257 5,200 -420 Descending Atlanta TRACON
08:14AM 33.7333 -84.7667 270° West 195 224 5,000 -120 Descending Atlanta TRACON
08:15AM 33.7333 -84.8333 270° West 197 227 5,000  Level Atlanta TRACON
08:16AM 33.7500 -84.8833 292° West 197 227 5,000  Level Atlanta TRACON
08:17AM 33.7333 -84.9500 253° West 193 222 5,000  Level Atlanta TRACON
08:18AM 33.7000 -84.9500 180° South 156 180 5,000  Level Atlanta TRACON
08:19AM 33.6667 -84.9333 157° South 154 177 5,000  Level Atlanta TRACON
08:19AM 33.6500 -84.9000 121° Southeast 147 169 5,000  Level Atlanta TRACON
08:20AM 33.6500 -84.8500 90° East 144 166 5,000  Level Atlanta TRACON
08:21AM 33.6500 -84.8000 90° East 146 168 5,000  Level Atlanta TRACON
08:22AM 33.6500 -84.7500 90° East 143 165 5,000  Level Atlanta TRACON
08:23AM 33.6500 -84.7000 90° East 146 168 5,000 -180 Level Atlanta TRACON
08:24AM 33.6500 -84.6500 90° East 144 166 4,700 -600 Descending Atlanta TRACON
08:25AM 33.6500 -84.6000 90° East 130 150 3,900 -780 Descending Atlanta TRACON
08:26AM 33.6500 -84.5667 90° East 129 148 3,200 -720 Descending Atlanta TRACON